createdAt,value
2018-04-23T00:00:40.601Z,7.10
2018-04-23T00:03:08.168Z,6.57
2018-04-23T00:05:36.840Z,6.50
2018-04-23T00:08:04.395Z,6.90
2018-04-23T00:10:31.984Z,6.30
2018-04-23T00:12:59.669Z,6.30
2018-04-23T00:15:32.090Z,5.90
2018-04-23T00:18:01.382Z,6.67
2018-04-23T00:20:30.891Z,7.40
2018-04-23T00:22:59.386Z,6.37
2018-04-23T00:25:31.746Z,7.20
2018-04-23T00:28:00.067Z,5.93
2018-04-23T00:30:28.579Z,6.73
2018-04-23T00:33:02.217Z,6.40
2018-04-23T00:35:31.509Z,6.60
2018-04-23T00:37:59.959Z,6.90
2018-04-23T00:40:29.509Z,6.60
2018-04-23T00:42:57.832Z,7.03
2018-04-23T00:45:25.402Z,6.67
2018-04-23T00:47:52.945Z,6.70
2018-04-23T00:50:21.455Z,6.40
2018-04-23T00:53:02.632Z,6.50
2018-04-23T00:55:30.157Z,6.43
2018-04-23T00:57:57.753Z,6.50
2018-04-23T01:00:25.307Z,6.53
2018-04-23T01:02:52.845Z,6.80
2018-04-23T01:05:20.409Z,6.40
2018-04-23T01:07:47.940Z,7.13
2018-04-23T01:10:15.769Z,6.93
2018-04-23T01:12:43.290Z,6.30
2018-04-23T01:18:14.399Z,6.10
2018-04-23T01:20:41.978Z,6.87
2018-04-23T01:23:10.342Z,6.50
2018-04-23T01:25:37.913Z,6.20
2018-04-23T01:28:05.577Z,6.50
2018-04-23T01:30:38.167Z,7.00
2018-04-23T01:33:13.677Z,6.53
2018-04-23T01:35:42.164Z,6.40
2018-04-23T01:38:10.711Z,6.70
2018-04-23T01:40:38.341Z,6.47
2018-04-23T01:43:05.963Z,6.40
2018-04-23T01:45:33.601Z,6.50
2018-04-23T01:48:01.290Z,6.40
2018-04-23T01:50:28.945Z,6.43
2018-04-23T01:52:56.508Z,6.67
2018-04-23T01:55:24.133Z,6.60
2018-04-23T01:57:53.509Z,7.10
2018-04-23T02:00:23.499Z,6.20
2018-04-23T02:02:51.053Z,6.60
2018-04-23T02:08:10.833Z,6.63
2018-04-23T02:10:38.436Z,6.00
2018-04-23T02:13:06.933Z,6.70
2018-04-23T02:15:34.548Z,7.63
2018-04-23T02:18:04.912Z,6.80
2018-04-23T02:20:34.213Z,6.47
2018-04-23T02:23:01.771Z,6.60
2018-04-23T02:25:30.125Z,6.80
2018-04-23T02:28:18.127Z,6.53
2018-04-23T02:30:45.739Z,6.80
2018-04-23T02:33:14.129Z,6.67
2018-04-23T02:35:42.059Z,7.70
2018-04-23T02:38:12.445Z,6.40
2018-04-23T02:40:42.997Z,6.67
2018-04-23T02:43:10.792Z,6.83
2018-04-23T02:45:38.469Z,7.07
2018-04-23T02:48:17.997Z,7.10
2018-04-23T02:50:45.681Z,7.23
2018-04-23T02:53:13.515Z,7.07
2018-04-23T02:55:42.177Z,7.70
2018-04-23T02:58:10.893Z,7.03
2018-04-23T03:00:38.632Z,6.63
2018-04-23T03:10:36.936Z,7.30
2018-04-23T03:13:04.533Z,7.57
2018-04-23T03:15:32.089Z,6.40
2018-04-23T03:17:59.661Z,7.63
2018-04-23T03:20:27.223Z,7.33
2018-04-23T03:22:54.812Z,7.00
2018-04-23T03:25:22.486Z,6.83
2018-04-23T03:27:50.844Z,7.50
2018-04-23T03:30:19.249Z,8.70
2018-04-23T03:32:47.027Z,7.50
2018-04-23T03:35:16.303Z,7.57
2018-04-23T03:37:45.523Z,7.57
2018-04-23T03:40:13.200Z,7.50
2018-04-23T03:42:40.840Z,7.60
2018-04-23T03:45:08.408Z,7.47
2018-04-23T03:47:35.947Z,8.57
2018-04-23T03:50:03.571Z,7.93
2018-04-23T03:52:31.143Z,8.30
2018-04-23T03:54:58.771Z,8.17
2018-04-23T03:57:26.327Z,7.40
2018-04-23T03:59:53.936Z,6.97
2018-04-23T04:02:21.623Z,8.33
2018-04-23T04:04:50.156Z,9.67
2018-04-23T04:07:17.925Z,7.30
2018-04-23T04:09:46.508Z,7.80
2018-04-23T04:12:27.027Z,7.67
2018-04-23T04:15:06.248Z,8.37
2018-04-23T04:20:48.187Z,7.50
2018-04-23T04:23:15.824Z,7.60
2018-04-23T04:25:43.400Z,7.57
2018-04-23T04:28:11.768Z,9.00
2018-04-23T04:30:39.401Z,6.90
2018-04-23T04:33:06.981Z,6.93
2018-04-23T04:35:34.583Z,8.70
2018-04-23T04:38:03.445Z,7.33
2018-04-23T04:40:31.968Z,7.40
2018-04-23T04:42:59.520Z,8.43
2018-04-23T04:45:27.103Z,8.23
2018-04-23T04:47:54.641Z,9.67
2018-04-23T04:50:22.557Z,8.70
2018-04-23T04:52:50.096Z,9.13
2018-04-23T04:55:17.698Z,8.23
2018-04-23T04:57:45.287Z,7.90
2018-04-23T05:00:12.799Z,7.30
2018-04-23T05:02:40.404Z,8.00
2018-04-23T05:05:08.718Z,8.10
2018-04-23T05:07:36.283Z,9.50
2018-04-23T05:10:03.832Z,7.87
2018-04-23T05:12:31.443Z,8.53
2018-04-23T05:14:58.990Z,8.63
2018-04-23T05:17:26.627Z,8.20
2018-04-23T05:19:54.195Z,7.10
2018-04-23T05:22:21.761Z,7.13
2018-04-23T05:24:49.324Z,7.97
2018-04-23T05:27:16.895Z,7.70
2018-04-23T05:29:44.429Z,7.63
2018-04-23T05:32:12.028Z,8.03
2018-04-23T05:34:39.619Z,7.20
2018-04-23T05:37:07.178Z,8.43
2018-04-23T05:39:34.728Z,8.70
2018-04-23T05:42:03.025Z,8.63
2018-04-23T05:44:30.601Z,8.90
2018-04-23T05:46:58.148Z,12.37
2018-04-23T05:49:25.772Z,9.50
2018-04-23T05:51:54.121Z,7.83
2018-04-23T05:54:21.839Z,7.87
2018-04-23T05:56:50.127Z,9.40
2018-04-23T05:59:17.682Z,7.30
2018-04-23T06:01:45.247Z,7.90
2018-04-23T06:04:12.832Z,8.97
2018-04-23T06:06:40.401Z,7.73
2018-04-23T06:09:08.874Z,7.27
2018-04-23T06:11:37.380Z,7.57
2018-04-23T06:14:04.997Z,7.90
2018-04-23T06:16:32.529Z,8.10
2018-04-23T06:19:00.890Z,7.40
2018-04-23T06:21:28.433Z,6.77
2018-04-23T06:23:56.005Z,7.20
2018-04-23T06:26:23.555Z,7.40
2018-04-23T06:28:51.110Z,7.63
2018-04-23T06:31:19.567Z,8.00
2018-04-23T06:33:47.107Z,5.90
2018-04-23T06:36:14.780Z,7.50
2018-04-23T06:38:42.379Z,7.10
2018-04-23T06:41:10.053Z,6.40
2018-04-23T06:43:37.587Z,5.67
2018-04-23T06:46:05.123Z,6.40
2018-04-23T06:48:32.676Z,6.47
2018-04-23T06:51:00.335Z,6.87
2018-04-23T06:53:27.874Z,6.67
2018-04-23T06:55:56.161Z,6.47
2018-04-23T06:58:23.770Z,6.67
2018-04-23T07:00:51.309Z,5.87
2018-04-23T07:03:18.882Z,5.83
2018-04-23T07:05:46.401Z,5.80
2018-04-23T07:08:13.971Z,6.53
2018-04-23T07:10:41.495Z,6.00
2018-04-23T07:13:09.076Z,7.10
2018-04-23T07:15:38.104Z,6.00
2018-04-23T07:18:05.669Z,5.50
2018-04-23T07:20:33.250Z,6.30
2018-04-23T07:23:00.817Z,6.67
2018-04-23T07:25:28.394Z,5.43
2018-04-23T07:27:55.955Z,6.03
2018-04-23T07:30:24.317Z,5.13
2018-04-23T07:32:51.903Z,5.63
2018-04-23T07:35:20.266Z,6.43
2018-04-23T07:37:47.890Z,6.00
2018-04-23T07:40:15.443Z,6.43
2018-04-23T07:42:42.971Z,6.40
2018-04-23T07:45:11.266Z,7.07
2018-04-23T07:47:38.829Z,6.10
2018-04-23T07:50:06.402Z,6.37
2018-04-23T07:52:33.983Z,6.67
2018-04-23T07:55:01.501Z,5.70
2018-04-23T07:57:29.453Z,6.10
2018-04-23T07:59:57.819Z,6.03
2018-04-23T08:02:25.371Z,6.07
2018-04-23T08:04:52.949Z,6.20
2018-04-23T08:07:21.249Z,5.50
2018-04-23T08:09:48.796Z,5.17
2018-04-23T08:12:16.404Z,5.93
2018-04-23T08:14:43.946Z,5.60
2018-04-23T08:17:11.503Z,5.70
2018-04-23T08:19:39.498Z,6.07
2018-04-23T08:22:07.019Z,5.30
2018-04-23T08:24:40.768Z,5.60
2018-04-23T08:27:08.303Z,6.03
2018-04-23T08:29:36.093Z,5.00
2018-04-23T08:32:03.661Z,4.60
2018-04-23T08:34:31.515Z,5.20
2018-04-23T08:36:59.051Z,5.03
2018-04-23T08:39:26.607Z,5.40
2018-04-23T08:41:54.208Z,5.27
2018-04-23T08:44:21.765Z,5.57
2018-04-23T08:46:50.115Z,5.43
2018-04-23T08:49:17.711Z,4.70
2018-04-23T08:51:45.327Z,5.70
2018-04-23T08:57:05.483Z,4.70
2018-04-23T08:59:33.913Z,4.60
2018-04-23T09:02:01.525Z,4.80
2018-04-23T09:04:29.100Z,4.60
2018-04-23T09:06:57.697Z,4.80
2018-04-23T09:09:25.263Z,4.70
2018-04-23T09:11:53.617Z,4.80
2018-04-23T09:14:21.488Z,4.43
2018-04-23T09:16:49.019Z,3.90
2018-04-23T09:19:16.715Z,4.03
2018-04-23T09:21:45.029Z,4.70
2018-04-23T09:24:12.570Z,4.97
2018-04-23T09:26:40.177Z,5.43
2018-04-23T09:29:07.716Z,4.63
2018-04-23T09:31:35.376Z,3.93
2018-04-23T09:34:02.948Z,4.70
2018-04-23T09:36:30.828Z,5.10
2018-04-23T09:38:58.428Z,4.60
2018-04-23T09:41:25.920Z,4.10
2018-04-23T09:43:53.491Z,4.40
2018-04-23T09:46:21.035Z,4.13
2018-04-23T09:48:48.593Z,4.70
2018-04-23T09:51:16.170Z,4.27
2018-04-23T09:53:43.740Z,5.03
2018-04-23T09:56:11.398Z,4.73
2018-04-23T09:58:38.954Z,4.53
2018-04-23T10:01:12.112Z,4.70
2018-04-23T10:03:41.566Z,3.90
2018-04-23T10:06:09.187Z,4.90
2018-04-23T10:08:37.497Z,5.10
2018-04-23T10:11:05.062Z,4.03
2018-04-23T10:13:32.663Z,4.30
2018-04-23T10:16:00.985Z,4.37
2018-04-23T10:18:28.512Z,4.07
2018-04-23T10:20:56.890Z,5.00
2018-04-23T10:23:24.390Z,5.00
2018-04-23T10:25:51.964Z,4.37
2018-04-23T10:28:20.772Z,5.07
2018-04-23T10:30:51.175Z,4.80
2018-04-23T10:33:18.722Z,4.90
2018-04-23T10:35:46.284Z,4.63
2018-04-23T10:38:13.871Z,5.20
2018-04-23T10:40:41.405Z,5.30
2018-04-23T10:43:09.012Z,4.20
2018-04-23T10:45:36.588Z,4.07
2018-04-23T10:48:04.146Z,4.10
2018-04-23T10:50:31.718Z,4.63
2018-04-23T10:52:59.271Z,4.93
2018-04-23T10:55:27.631Z,5.23
2018-04-23T10:57:56.830Z,5.23
2018-04-23T11:00:25.197Z,4.50
2018-04-23T11:02:52.725Z,4.70
2018-04-23T11:05:20.271Z,4.40
2018-04-23T11:07:47.894Z,4.57
2018-04-23T11:10:15.422Z,4.93
2018-04-23T11:12:43.932Z,4.10
2018-04-23T11:15:11.556Z,4.17
2018-04-23T11:17:40.071Z,4.70
2018-04-23T11:20:07.633Z,5.00
2018-04-23T11:22:35.175Z,4.90
2018-04-23T11:25:02.754Z,4.60
2018-04-23T11:27:30.337Z,5.67
2018-04-23T11:29:58.651Z,4.90
2018-04-23T11:32:26.221Z,5.10
2018-04-23T11:34:53.759Z,5.53
2018-04-23T11:37:22.143Z,5.20
2018-04-23T11:39:50.630Z,6.80
2018-04-23T11:42:18.212Z,6.17
2018-04-23T11:44:45.785Z,4.73
2018-04-23T11:47:15.315Z,6.47
2018-04-23T11:49:43.876Z,5.03
2018-04-23T11:52:13.429Z,6.00
2018-04-23T11:54:41.963Z,5.60
2018-04-23T11:57:09.531Z,5.37
2018-04-23T11:59:37.113Z,5.80
2018-04-23T12:02:04.649Z,5.33
2018-04-23T12:04:33.275Z,6.20
2018-04-23T12:07:00.823Z,5.90
2018-04-23T12:09:29.188Z,5.50
2018-04-23T12:11:56.784Z,5.70
2018-04-23T12:14:24.374Z,6.10
2018-04-23T12:16:52.032Z,6.53
2018-04-23T12:19:19.612Z,5.77
2018-04-23T12:21:47.170Z,6.00
2018-04-23T12:24:14.750Z,6.87
2018-04-23T12:26:42.280Z,5.63
2018-04-23T12:29:09.843Z,4.90
2018-04-23T12:31:37.430Z,5.60
2018-04-23T12:34:04.989Z,5.80
2018-04-23T12:36:32.589Z,5.63
2018-04-23T12:39:00.177Z,7.90
2018-04-23T12:41:28.188Z,5.57
2018-04-23T12:43:56.496Z,7.67
2018-04-23T12:46:24.076Z,6.53
2018-04-23T12:48:52.382Z,5.90
2018-04-23T12:51:19.958Z,6.10
2018-04-23T12:53:47.585Z,6.70
2018-04-23T12:56:15.161Z,6.00
2018-04-23T12:58:42.714Z,6.00
2018-04-23T13:01:10.269Z,7.50
2018-04-23T13:03:38.808Z,5.20
2018-04-23T13:06:06.360Z,6.50
2018-04-23T13:08:34.755Z,6.07
2018-04-23T13:11:03.278Z,5.70
2018-04-23T13:13:31.382Z,6.13
2018-04-23T13:15:58.998Z,5.60
2018-04-23T13:18:26.599Z,7.40
2018-04-23T13:20:54.193Z,6.03
2018-04-23T13:23:21.746Z,5.97
2018-04-23T13:25:49.328Z,6.37
2018-04-23T13:28:16.852Z,6.47
2018-04-23T13:30:45.159Z,6.47
2018-04-23T13:33:12.778Z,6.70
2018-04-23T13:35:40.316Z,6.97
2018-04-23T13:38:07.913Z,6.90
2018-04-23T13:40:36.228Z,8.13
2018-04-23T13:43:03.884Z,8.07
2018-04-23T13:45:31.433Z,7.20
2018-04-23T13:47:58.980Z,7.23
2018-04-23T13:50:27.332Z,8.53
2018-04-23T13:52:54.896Z,7.80
2018-04-23T13:55:22.487Z,8.87
2018-04-23T13:57:50.879Z,8.37
2018-04-23T14:00:18.507Z,9.10
2018-04-23T14:02:46.054Z,8.80
2018-04-23T14:05:13.695Z,9.27
2018-04-23T14:07:41.273Z,9.60
2018-04-23T14:10:08.843Z,8.63
2018-04-23T14:12:37.218Z,9.57
2018-04-23T14:15:04.791Z,9.37
2018-04-23T14:17:32.460Z,9.03
2018-04-23T14:20:00.090Z,8.40
2018-04-23T14:22:27.745Z,8.10
2018-04-23T14:24:55.339Z,8.43
2018-04-23T14:27:23.677Z,6.47
2018-04-23T14:29:52.022Z,7.87
2018-04-23T14:32:20.289Z,6.20
2018-04-23T14:34:47.904Z,6.73
2018-04-23T14:37:15.451Z,5.93
2018-04-23T14:39:43.019Z,7.43
2018-04-23T14:42:10.609Z,7.17
2018-04-23T14:44:38.165Z,6.10
2018-04-23T14:47:05.715Z,5.70
2018-04-23T14:49:33.327Z,5.73
2018-04-23T14:52:01.434Z,5.90
2018-04-23T14:54:29.025Z,6.83
2018-04-23T14:56:56.550Z,5.40
2018-04-23T14:59:24.206Z,5.67
2018-04-23T15:01:51.750Z,5.00
2018-04-23T15:04:19.322Z,5.80
2018-04-23T15:06:46.947Z,6.90
2018-04-23T15:09:15.242Z,4.60
2018-04-23T15:11:42.825Z,5.00
2018-04-23T15:14:10.385Z,4.83
2018-04-23T15:16:37.949Z,4.73
2018-04-23T15:19:06.527Z,4.03
2018-04-23T15:21:35.020Z,7.27
2018-04-23T15:24:02.649Z,4.63
2018-04-23T15:26:30.242Z,4.70
2018-04-23T15:28:58.207Z,6.27
2018-04-23T15:31:25.767Z,5.43
2018-04-23T15:33:54.111Z,4.47
2018-04-23T15:36:21.693Z,3.70
2018-04-23T15:38:50.240Z,4.80
2018-04-23T15:41:18.625Z,5.07
2018-04-23T15:43:47.098Z,4.67
2018-04-23T15:46:15.446Z,4.80
2018-04-23T15:48:42.991Z,4.37
2018-04-23T15:51:10.595Z,4.80
2018-04-23T15:53:38.913Z,4.33
2018-04-23T15:56:06.575Z,5.03
2018-04-23T15:58:34.129Z,4.87
2018-04-23T16:01:01.692Z,4.00
2018-04-23T16:03:29.287Z,5.33
2018-04-23T16:05:56.899Z,7.20
2018-04-23T16:08:24.454Z,5.40
2018-04-23T16:10:52.101Z,5.00
2018-04-23T16:13:20.470Z,4.57
2018-04-23T16:15:48.848Z,4.30
2018-04-23T16:18:16.388Z,5.13
2018-04-23T16:20:45.676Z,7.67
2018-04-23T16:23:13.219Z,5.90
2018-04-23T16:25:42.462Z,5.53
2018-04-23T16:28:12.361Z,5.17
2018-04-23T16:30:41.017Z,6.00
2018-04-23T16:33:08.596Z,4.70
2018-04-23T16:35:36.170Z,4.80
2018-04-23T16:38:03.797Z,5.40
2018-04-23T16:40:31.348Z,5.00
2018-04-23T16:43:00.650Z,5.90
2018-04-23T16:45:28.362Z,5.43
2018-04-23T16:47:56.820Z,6.10
2018-04-23T16:50:25.872Z,5.13
2018-04-23T16:52:53.464Z,5.10
2018-04-23T16:55:21.083Z,5.63
2018-04-23T16:57:50.376Z,5.60
2018-04-23T17:00:19.005Z,4.97
2018-04-23T17:02:47.518Z,5.30
2018-04-23T17:05:15.095Z,4.90
2018-04-23T17:07:42.704Z,6.50
2018-04-23T17:10:11.292Z,5.43
2018-04-23T17:12:43.941Z,4.93
2018-04-23T17:15:13.048Z,5.10
2018-04-23T17:17:41.402Z,4.90
2018-04-23T17:20:09.051Z,6.00
2018-04-23T17:22:36.642Z,6.60
2018-04-23T17:25:04.213Z,5.10
2018-04-23T17:27:31.752Z,5.97
2018-04-23T17:30:02.458Z,5.13
2018-04-23T17:32:29.999Z,5.67
2018-04-23T17:34:57.541Z,5.70
2018-04-23T17:37:25.139Z,6.50
2018-04-23T17:39:52.731Z,5.30
2018-04-23T17:42:21.219Z,5.67
2018-04-23T17:44:49.682Z,4.90
2018-04-23T17:47:17.333Z,6.17
2018-04-23T17:49:44.905Z,5.90
2018-04-23T17:52:13.240Z,5.20
2018-04-23T17:54:41.599Z,5.57
2018-04-23T17:57:09.143Z,6.73
2018-04-23T17:59:39.480Z,6.40
2018-04-23T18:02:07.003Z,5.67
2018-04-23T18:04:34.612Z,5.10
2018-04-23T18:07:02.297Z,5.80
2018-04-23T18:09:29.848Z,5.40
2018-04-23T18:11:59.439Z,5.50
2018-04-23T18:14:27.131Z,6.37
2018-04-23T18:16:54.772Z,6.30
2018-04-23T18:19:23.511Z,6.37
2018-04-23T18:21:51.492Z,5.77
2018-04-23T18:24:19.841Z,5.23
2018-04-23T18:26:47.581Z,5.77
2018-04-23T18:29:18.263Z,5.43
2018-04-23T18:31:47.964Z,6.53
2018-04-23T18:34:15.554Z,6.77
2018-04-23T18:36:43.883Z,6.10
2018-04-23T18:39:11.430Z,6.00
2018-04-23T18:41:39.017Z,5.60
2018-04-23T18:44:06.564Z,6.37
2018-04-23T18:46:34.162Z,6.60
2018-04-23T18:49:01.730Z,7.03
2018-04-23T18:51:29.312Z,6.70
2018-04-23T18:53:56.905Z,6.87
2018-04-23T18:56:25.243Z,7.40
2018-04-23T18:58:53.063Z,7.00
2018-04-23T19:01:20.655Z,7.10
2018-04-23T19:03:48.193Z,6.17
2018-04-23T19:06:15.747Z,6.50
2018-04-23T19:08:43.379Z,5.80
2018-04-23T19:11:10.916Z,7.00
2018-04-23T19:13:38.475Z,6.63
2018-04-23T19:16:06.057Z,7.00
2018-04-23T19:18:33.637Z,6.80
2018-04-23T19:21:01.322Z,6.57
2018-04-23T19:23:28.980Z,6.50
2018-04-23T19:25:56.626Z,6.30
2018-04-23T19:28:24.470Z,6.77
2018-04-23T19:30:53.191Z,6.03
2018-04-23T19:33:20.899Z,7.17
2018-04-23T19:35:49.711Z,6.30
2018-04-23T19:38:17.329Z,7.00
2018-04-23T19:40:45.034Z,7.17
2018-04-23T19:43:12.772Z,6.30
2018-04-23T19:45:40.469Z,6.30
2018-04-23T19:48:08.136Z,7.40
2018-04-23T19:50:36.332Z,6.80
2018-04-23T19:53:03.991Z,5.70
2018-04-23T19:55:31.693Z,6.13
2018-04-23T19:57:59.349Z,6.67
2018-04-23T20:00:27.154Z,6.33
2018-04-23T20:02:56.895Z,6.97
2018-04-23T20:05:25.586Z,6.53
2018-04-23T20:07:53.299Z,6.80
2018-04-23T20:10:21.198Z,5.93
2018-04-23T20:12:50.018Z,5.70
2018-04-23T20:15:18.495Z,6.77
2018-04-23T20:17:46.263Z,6.23
2018-04-23T20:20:13.929Z,5.77
2018-04-23T20:22:41.748Z,6.20
2018-04-23T20:25:09.431Z,7.00
2018-04-23T20:27:38.264Z,6.10
2018-04-23T20:30:05.948Z,5.87
2018-04-23T20:32:33.728Z,5.90
2018-04-23T20:35:02.384Z,6.40
2018-04-23T20:37:30.607Z,6.67
2018-04-23T20:39:59.149Z,7.23
2018-04-23T20:42:27.881Z,7.00
2018-04-23T20:44:55.545Z,6.50
2018-04-23T20:47:24.190Z,6.90
2018-04-23T20:49:52.077Z,6.30
2018-04-23T20:52:19.753Z,5.93
2018-04-23T20:54:47.642Z,6.23
2018-04-23T20:57:15.518Z,7.13
2018-04-23T20:59:43.275Z,6.37
2018-04-23T21:02:12.108Z,6.47
2018-04-23T21:04:39.986Z,6.13
2018-04-23T21:07:07.613Z,6.23
2018-04-23T21:09:36.390Z,5.50
2018-04-23T21:12:04.750Z,6.10
2018-04-23T21:14:32.682Z,5.10
2018-04-23T21:17:00.355Z,4.50
2018-04-23T21:19:28.149Z,4.80
2018-04-23T21:21:55.889Z,5.40
2018-04-23T21:24:23.793Z,5.33
2018-04-23T21:26:52.509Z,5.30
2018-04-23T21:29:20.238Z,5.43
2018-04-23T21:31:48.147Z,6.60
2018-04-23T21:34:15.754Z,6.00
2018-04-23T21:36:43.418Z,5.33
2018-04-23T21:39:11.056Z,6.07
2018-04-23T21:41:38.730Z,6.20
2018-04-23T21:44:06.378Z,8.10
2018-04-23T21:46:34.021Z,6.27
2018-04-23T21:49:01.704Z,5.33
2018-04-23T21:51:29.342Z,6.33
2018-04-23T21:53:57.027Z,6.03
2018-04-23T21:56:24.700Z,5.63
2018-04-23T21:58:52.400Z,6.50
2018-04-23T22:01:20.043Z,6.50
2018-04-23T22:03:47.736Z,6.70
2018-04-23T22:06:16.185Z,7.20
2018-04-23T22:08:44.697Z,6.93
2018-04-23T22:11:12.307Z,7.33
2018-04-23T22:13:40.037Z,7.23
2018-04-23T22:16:07.688Z,7.50
2018-04-23T22:18:41.013Z,7.40
2018-04-23T22:21:08.707Z,7.57
2018-04-23T22:23:36.416Z,8.20
2018-04-23T22:26:04.188Z,7.87
2018-04-23T22:28:32.681Z,8.07
2018-04-23T22:31:00.399Z,9.27
2018-04-23T22:33:29.214Z,7.80
2018-04-23T22:35:56.893Z,8.73
